Portada
METAR-TAF:

METAR-TAF

Aeroports :

Aeroport Internacional Atatürk

Istanbul Atatürk, Turquia

latitud: 40-58N, longitud: 028-49E, altitud: 48 m

Observació

L'informe es va fer fa 15 minuts, a les 00:20 UTC
Vent 6 kt del Nord/Nord-Est
Temperatura 25°C
Humitat 79%
Pressió 1010 hPa
Visibilitat 10 km o més
Escasses núvols a una alçada de 3500 ft

METAR: LTBA 160020Z 03006KT 9999 FEW035 25/21 Q1010 NOSIG

Hora: 03:35 (00:35 UTC)

Pronòstic

L'informe es va fer fa 1 hora i 55 minuts, a les 22:40 UTC
Pronòstic vàlid del 16 a les 00 UTC al 17 a les 06 UTC
Vent 9 kt del Nord/Nord-Est
Visibilitat 10 km o més
Núvols disperses a una alçada de 3500 ft
Temporalment
l' 16 a les 11 UTC al 16 a les 15 UTC
Vent 15 kt del Nord-Est amb ràfegues de 25 kt

TAF: LTBA 152240Z 1600/1706 03009KT 9999 SCT035 TEMPO 1611/1615 04015G25KT

Observacions i pronòstics meteorològics de més de 4000 aeroports (METAR i TAF).

Les estacions disponibles són els punts grocs i vermells al mapa.

Posi el ratolí al punt desitjat per veure el nom de l'estació.

Feu clic per veure les observacions i els pronòstics meteorològics.

Per canviar el mapa: feu clic els botons verds amb una creu de color negre per apropar; al botó verd amb un guió per allunyar la imatge; o en les fletxes verdes per a mapes adjacents.


METAR-TAF: